Flight Track Log - Related Links

Times and Time Zones

All times are in EDT time to prevent confusion due to time zone crossing. See the SWA2139 flight status page for this flight to view local times or setup timezone preferences in your user account.

Time Position Orientation Groundspeed Altitude Reporting Facility
EDT Latitude Longitude Course Direction KTS MPH feet Rate Location/Type
Sat 09:15:00 PM 36.0750 -115.1633 271° West 161 185 3,400  Level Los Center
Sat 09:15:30 PM 36.0756 -115.1950 271° West 176 203 4,100 1,971 Climbing Los Center
Sat 09:16:10 PM 36.0756 -115.2297 270° West 193 222 5,700 2,727 Climbing Los Center
Sat 09:16:25 PM 36.0592 -115.2589 235° Southwest 238 274 6,600 2,262 Climbing Los Center
Sat 09:17:11 PM 36.0186 -115.2778 201° Southwest 252 290 8,000 3,224 Climbing Los Center
Sat 09:17:32 PM 35.9778 -115.2828 186° South 285 328 10,200 3,290 Climbing Los Center
Sat 09:18:13 PM 35.9361 -115.2847 182° South 281 323 11,400 3,000 Climbing Los Center
Sat 09:18:26 PM 35.8969 -115.2881 184° South 330 380 12,900 4,525 Climbing Los Center
Sat 09:19:14 PM 35.8217 -115.2883 180° South 325 374 16,000 3,523 Climbing Los Center
Sat 09:20:15 PM 35.7200 -115.2925 182° South 354 407 19,300 2,927 Climbing Los Center
Sat 09:21:17 PM 35.6342 -115.3528 210° Southwest 366 421 22,000 1,317 Climbing Los Center
Sat 09:22:18 PM 35.5619 -115.4494 227° Southwest 376 433 22,000  Level Los Center
Sat 09:23:20 PM 35.4911 -115.5472 228° Southwest 381 438 22,000  Level Los Center
Sat 09:24:21 PM 35.4158 -115.6475 227° Southwest 388 447 22,000  Level Los Center
Sat 09:25:22 PM 35.3431 -115.7431 227° Southwest 385 443 22,000  Level Los Center
Sat 09:26:23 PM 35.2847 -115.8217 228° Southwest 386 444 22,000  Level Los Center
Sat 09:27:37 PM 35.1975 -115.9367 227° Southwest 385 443 22,000  Level Los Center
Sat 09:28:39 PM 35.1253 -116.0333 228° Southwest 385 443 22,000  Level Los Center
Sat 09:29:41 PM 35.0381 -116.1469 227° Southwest 382 440 22,000  Level Los Center
Sat 09:30:42 PM 34.9672 -116.2406 227° Southwest 380 437 22,000  Level Los Center
Sat 09:31:43 PM 34.9264 -116.3794 250° West 366 421 22,000  Level Los Center
Sat 09:32:45 PM 34.9053 -116.4975 258° West 362 417 22,000  Level Los Center
Sat 09:33:46 PM 34.8833 -116.6158 257° West 358 412 22,000  Level Los Center
Sat 09:34:48 PM 34.8622 -116.7361 258° West 361 415 22,000  Level Los Center
Sat 09:35:49 PM 34.8400 -116.8561 257° West 363 418 22,000  Level Los Center
Sat 09:36:50 PM 34.8189 -116.9750 258° West 360 414 22,000  Level Los Center
Sat 09:37:52 PM 34.7967 -117.0956 257° West 362 417 22,000  Level Los Center
Sat 09:38:53 PM 34.7739 -117.2158 257° West 364 419 22,000  Level Los Center
Sat 09:39:54 PM 34.7519 -117.3361 258° West 363 418 22,000 -244 Level Los Center
Sat 09:40:56 PM 34.7300 -117.4575 258° West 365 420 21,500 -1,268 Descending Los Center
Sat 09:41:57 PM 34.7064 -117.5753 256° West 358 412 19,400 -2,213 Descending Los Center
Sat 09:42:58 PM 34.6808 -117.7147 257° West 353 406 17,000 -2,098 Descending Los Center
Sat 09:44:00 PM 34.6611 -117.8300 258° West 351 404 15,100 -1,805 Descending Los Center
Sat 09:45:01 PM 34.6408 -117.9439 258° West 344 396 13,300 -1,918 Descending Los Center
Sat 09:46:02 PM 34.6222 -118.0511 258° West 328 377 11,200 -1,659 Descending Los Center
Sat 09:47:04 PM 34.6025 -118.1644 258° West 313 360 9,900 -1,317 Descending Los Center
Sat 09:48:05 PM 34.5850 -118.2575 257° West 290 334 8,500 -885 Descending Los Center
Sat 09:49:06 PM 34.5669 -118.3519 257° West 289 333 8,100 -537 Descending Los Center
Sat 09:50:08 PM 34.5194 -118.4256 232° Southwest 291 335 7,400 -537 Descending Los Center
Sat 09:51:09 PM 34.4631 -118.4911 224° Southwest 283 326 7,000 -443 Descending Los Center
Sat 09:52:10 PM 34.4061 -118.5569 224° Southwest 282 325 6,500 -737 Descending Los Center
Sat 09:53:03 PM 34.3500 -118.6167 221° Southwest 273 314 5,600 -743 Descending Southern TRACON
Sat 09:54:03 PM 34.2833 -118.6333 192° South 247 284 5,100 -750 Descending Southern TRACON
Sat 09:55:03 PM 34.2167 -118.6167 168° South 228 262 4,100 -950 Descending Southern TRACON
Sat 09:56:03 PM 34.2000 -118.5500 107° East 209 241 3,200 -600 Descending Southern TRACON
Sat 09:57:03 PM 34.2000 -118.4833 90° East 179 206 2,900 -650 Descending Southern TRACON
Sat 09:58:03 PM 34.2000 -118.4333 90° East 145 167 1,900 -850 Descending Southern TRACON
Sat 09:59:03 PM 34.2000 -118.3833 90° East 144 166 1,200 -700 Descending Southern TRACON
Sat 10:01:00 PM 34.2000 -118.3500 90° East  Level FlightAware
Sat 10:08:00 PM 34.2007 -118.3587 90° East  Level Estimated

Login

Don't have an account? Register now (free) for customized features, flight alerts, and more!